Manzini, Swaziland

4:47 PM SAST on December 28, 2014 (GMT +0200)
Matsapha International | Change Station
CLOSE
Current Station
Airport
Location: Manzini,
Elevation: 2103 ft
Nearby Weather Stations

Elev 2103 ft 26.53 °S, 31.31 °E | Updated 47 minutes ago

Mostly Cloudy
Mostly Cloudy
81 °F
Feels Like 85 °F
N
5
Wind Variable Wind from SE

Today
High -- | Low -- °F
--% Chance of Precip.
Yesterday
High -- | Low -- °F
Precip. -- in
5:02 AM 6:50 PM
Waxing Crescent, 48% visible
Pressure 29.83 in
Visibility 6.2 miles
Clouds Scattered Clouds 2500 ft
Mostly Cloudy 3000 ft
Heat Index 85 °F
Dew Point 73 °F
Humidity 79%
Rainfall 0.00 in
Snow Depth Not available.
UV 3 out of 12
Pollen Not available.
Air Quality Not available.
Flu Activity Not available.
METAR FDMS 281400Z 13004KT 9999 SCT025 BKN030 27/23 Q1010 NOSIG

More Conditions Fewer Conditions

Pressure 29.83 in
Visibility 6.2 miles
Clouds Scattered Clouds 2500 ft
Mostly Cloudy 3000 ft
Heat Index 85 °F
Dew Point 73 °F
Humidity 79%
Rainfall 0.00 in
Snow Depth Not available.
UV 3 out of 12
Pollen Not available.
Air Quality Not available.
Flu Activity Not available.
METAR FDMS 281400Z 13004KT 9999 SCT025 BKN030 27/23 Q1010 NOSIG

More Conditions Fewer Conditions

10-Day Weather Forecast

Almanac

Astronomy

Dec. 28, 2014 Rise Set
Actual Time
Civil Twilight
Nautical Twilight
Astronomical Twilight
Moon
Length of Visible Light
Length of Day
Tomorrow will be .
, % of the Moon is Illuminated

Today's Extremes

Country Highs Country Lows

Community

WunderPhotos

Upload Photos

1,781,274 photos uploaded!

WunderBlogs® & News

Nearby

Air Quality

  Air Quality AQ Index Pollutant
Not available.

Snow Depth

Station Depth Elevation

Earthquake Activity

City Distance Mag. Time & Date
Minimum magnitude displayed is 2.5.

Coastal Water Temperatures

Place Temperature

Nearby Weather Stations